Time;durP1;ratioP1;P1;durP2;ratioP2;P2;SDS_P1;SDS_P2;PMS_P1;PMS_P2;Temp;Humidity;BMP_temperature;BMP_pressure;BME280_temperature;BME280_humidity;BME280_pressure;Samples;Min_cycle;Max_cycle;Signal;HPM_P1;HPM_P2
2022/11/10 00:02:36;;;;;;;;;;;;;;;20.37;48.47;95979.16;10493173;28;2193;-49
2022/11/10 00:07:46;;;;;;;;;;;;;;;20.37;48.57;95978.34;10492841;28;2063;-49
2022/11/10 00:12:46;;;;;;;;;;;;;;;20.31;48.66;95982.84;10491030;28;2141;-49
2022/11/10 00:17:46;;;;;;;;;;;;;;;20.32;48.64;95987.03;10491362;28;2105;-50
2022/11/10 00:22:47;;;;;;;;;;;;;;;20.33;48.60;95996.53;10494338;28;1989;-47
2022/11/10 00:27:48;;;;;;;;;;;;;;;20.27;48.81;96001.03;10490526;28;2046;-46
2022/11/10 00:32:54;;;;;;;;;;;;;;;20.26;48.70;95999.44;10492254;28;2094;-52
2022/11/10 00:37:54;;;;;;;;;;;;;;;20.23;48.93;96009.69;10489298;28;2107;-48
2022/11/10 00:42:54;;;;;;;;;;;;;;;20.24;48.80;96011.25;10488382;28;1969;-50
2022/11/10 00:47:54;;;;;;;;;;;;;;;20.24;48.66;96019.97;10491094;28;2046;-48
2022/11/10 00:52:55;;;;;;;;;;;;;;;20.26;48.40;96028.38;10498524;28;2054;-51
2022/11/10 00:57:55;;;;;;;;;;;;;;;20.22;48.81;96034.44;10488588;28;2094;-49
2022/11/10 01:02:55;;;;;;;;;;;;;;;20.17;48.62;96032.56;10488647;28;2030;-49
2022/11/10 01:07:56;;;;;;;;;;;;;;;20.18;48.76;96033.34;10492090;28;2046;-50
2022/11/10 01:12:56;;;;;;;;;;;;;;;20.16;48.63;96053.88;10488850;28;2055;-50
2022/11/10 01:17:57;;;;;;;;;;;;;;;20.16;48.50;96053.88;10489097;28;1940;-53
2022/11/10 01:22:57;;;;;;;;;;;;;;;20.16;48.75;96044.16;10490375;28;2011;-47
2022/11/10 01:27:57;;;;;;;;;;;;;;;20.12;48.84;96053.63;10487490;28;2252;-49
2022/11/10 01:32:58;;;;;;;;;;;;;;;20.16;48.84;96054.69;10488365;28;2284;-50
2022/11/10 01:37:58;;;;;;;;;;;;;;;20.09;48.89;96050.75;10490940;28;2248;-51
2022/11/10 01:42:58;;;;;;;;;;;;;;;20.05;48.79;96058.34;10487678;28;2326;-49
2022/11/10 01:48:00;;;;;;;;;;;;;;;20.10;48.59;96054.94;10486320;28;2220;-49
2022/11/10 01:53:01;;;;;;;;;;;;;;;20.09;48.73;96061.28;10488056;28;2258;-47
2022/11/10 01:58:01;;;;;;;;;;;;;;;20.06;48.75;96067.03;10497358;28;2282;-49
2022/11/10 02:03:07;;;;;;;;;;;;;;;20.04;48.71;96066.50;10486839;28;2270;-51
2022/11/10 02:08:07;;;;;;;;;;;;;;;20.04;48.55;96063.88;10487257;28;2328;-47
2022/11/10 02:13:09;;;;;;;;;;;;;;;20.05;48.71;96065.47;10485900;28;2255;-49
2022/11/10 02:18:09;;;;;;;;;;;;;;;20.01;48.83;96070.44;10488157;28;1965;-49
2022/11/10 02:23:11;;;;;;;;;;;;;;;20.00;48.66;96070.72;10490085;28;2270;-51
2022/11/10 02:28:11;;;;;;;;;;;;;;;19.98;48.83;96072.81;10486650;28;2308;-52
2022/11/10 02:33:12;;;;;;;;;;;;;;;19.98;48.88;96072.81;10474685;28;2310;-45
2022/11/10 02:38:12;;;;;;;;;;;;;;;20.00;48.66;96076.78;10489009;28;2289;-50
2022/11/10 02:43:13;;;;;;;;;;;;;;;20.01;48.81;96078.34;10485941;28;2334;-47
2022/11/10 02:48:13;;;;;;;;;;;;;;;19.99;48.80;96085.72;10492197;28;2325;-50
2022/11/10 02:53:14;;;;;;;;;;;;;;;19.96;48.56;96095.97;10490075;28;2334;-52
2022/11/10 02:58:14;;;;;;;;;;;;;;;19.94;48.70;96124.38;10486471;28;2309;-49
2022/11/10 03:03:15;;;;;;;;;;;;;;;19.95;48.71;96141.75;10489494;28;2285;-48
2022/11/10 03:08:15;;;;;;;;;;;;;;;19.95;48.67;96152.25;10491944;28;2264;-51
2022/11/10 03:13:15;;;;;;;;;;;;;;;19.92;48.78;96158.88;10485694;28;2268;-48
2022/11/10 03:18:16;;;;;;;;;;;;;;;19.93;48.86;96168.31;10483921;28;2403;-50
2022/11/10 03:23:17;;;;;;;;;;;;;;;19.92;48.49;96179.91;10485016;28;2279;-47
2022/11/10 03:28:17;;;;;;;;;;;;;;;19.90;48.78;96191.72;10490630;28;2293;-47
2022/11/10 03:33:17;;;;;;;;;;;;;;;19.90;48.55;96202.25;10493211;28;2200;-48
2022/11/10 03:38:18;;;;;;;;;;;;;;;19.88;48.63;96199.09;10491703;28;2311;-49
2022/11/10 03:43:18;;;;;;;;;;;;;;;19.86;48.55;96207.25;10494361;28;2378;-49
2022/11/10 03:48:18;;;;;;;;;;;;;;;19.85;48.56;96215.38;10491099;28;2307;-48
2022/11/10 03:53:18;;;;;;;;;;;;;;;19.85;48.75;96212.75;10492920;28;2308;-50
2022/11/10 03:58:19;;;;;;;;;;;;;;;19.83;48.71;96215.66;10498985;28;2282;-48
2022/11/10 04:03:19;;;;;;;;;;;;;;;19.84;48.54;96225.13;10496512;28;2256;-47
2022/11/10 04:18:59;;;;;;;;;;;;;;;19.85;48.54;96236.44;10491329;28;2441;-51
2022/11/10 04:24:00;;;;;;;;;;;;;;;19.81;48.55;96236.16;10490702;28;2261;-46
2022/11/10 04:29:01;;;;;;;;;;;;;;;19.84;48.62;96240.13;10491570;28;2473;-47
2022/11/10 04:34:01;;;;;;;;;;;;;;;19.87;48.36;96245.66;10489011;28;2374;-49
2022/11/10 04:39:02;;;;;;;;;;;;;;;19.88;48.59;96252.50;10491844;28;2319;-48
2022/11/10 04:44:08;;;;;;;;;;;;;;;19.97;48.47;96281.75;10492570;28;2338;-47
2022/11/10 04:49:08;;;;;;;;;;;;;;;20.09;48.22;96285.72;10492108;28;2138;-48
2022/11/10 04:54:09;;;;;;;;;;;;;;;20.16;48.04;96296.03;10499324;28;2284;-46
2022/11/10 04:59:09;;;;;;;;;;;;;;;20.20;48.10;96297.13;10495162;28;2554;-49
2022/11/10 05:04:09;;;;;;;;;;;;;;;20.24;47.81;96296.38;10489318;28;2298;-47
2022/11/10 05:09:10;;;;;;;;;;;;;;;20.24;47.26;96293.72;10491725;28;2339;-46
2022/11/10 05:14:10;;;;;;;;;;;;;;;20.25;46.94;96291.91;10490798;28;2415;-46
2022/11/10 05:19:10;;;;;;;;;;;;;;;20.25;46.72;96305.06;10489170;28;2286;-46
2022/11/10 05:24:10;;;;;;;;;;;;;;;20.27;46.47;96311.66;10490922;28;2250;-51
2022/11/10 05:29:11;;;;;;;;;;;;;;;20.30;46.69;96322.72;10488468;28;2222;-45
2022/11/10 05:34:11;;;;;;;;;;;;;;;20.33;46.44;96328.25;10487559;28;2322;-46
2022/11/10 05:39:11;;;;;;;;;;;;;;;20.36;46.08;96342.75;10488322;28;2258;-45
2022/11/10 05:44:14;;;;;;;;;;;;;;;20.39;45.79;96347.47;10487053;28;2337;-48
2022/11/10 05:49:14;;;;;;;;;;;;;;;20.42;45.63;96357.53;10488066;28;2243;-46
2022/11/10 05:54:14;;;;;;;;;;;;;;;20.45;47.10;96363.06;10491594;28;2323;-50
2022/11/10 05:59:14;;;;;;;;;;;;;;;20.47;46.28;96373.31;10487994;28;2412;-48
2022/11/10 06:04:15;;;;;;;;;;;;;;;20.47;46.18;96386.50;10485684;28;2273;-47
2022/11/10 06:09:15;;;;;;;;;;;;;;;20.50;46.48;96391.25;10487310;28;2295;-47
2022/11/10 06:14:17;;;;;;;;;;;;;;;20.52;46.03;96399.69;10485886;28;2258;-47
2022/11/10 06:19:19;;;;;;;;;;;;;;;20.56;46.18;96411.28;10486671;28;2347;-48
2022/11/10 06:24:19;;;;;;;;;;;;;;;20.64;47.12;96426.59;10479379;28;2263;-47
2022/11/10 06:29:19;;;;;;;;;;;;;;;20.67;45.86;96445.31;10482296;28;2240;-47
2022/11/10 06:34:20;;;;;;;;;;;;;;;20.69;45.77;96459.03;10479755;28;2390;-49
2022/11/10 06:39:20;;;;;;;;;;;;;;;20.72;45.96;96476.97;10479860;28;2297;-50
2022/11/10 06:44:20;;;;;;;;;;;;;;;20.77;45.99;96468.28;10483163;28;2311;-45
2022/11/10 06:49:23;;;;;;;;;;;;;;;20.72;45.96;96476.97;10479908;28;2239;-51
2022/11/10 06:54:23;;;;;;;;;;;;;;;20.72;45.38;96484.06;10487363;28;2420;-45
2022/11/10 06:59:24;;;;;;;;;;;;;;;20.71;45.21;96488.53;10479903;28;2303;-48
2022/11/10 07:04:24;;;;;;;;;;;;;;;20.72;45.60;96505.94;10478987;28;2479;-50
2022/11/10 07:09:25;;;;;;;;;;;;;;;20.77;45.56;96516.50;10478271;28;2334;-46
2022/11/10 07:14:25;;;;;;;;;;;;;;;20.80;45.91;96523.91;10479460;28;2308;-47
2022/11/10 07:19:25;;;;;;;;;;;;;;;20.78;46.05;96531.25;10480249;28;2233;-51
2022/11/10 07:24:29;;;;;;;;;;;;;;;20.82;45.49;96542.06;10480042;28;2317;-49
2022/11/10 07:29:29;;;;;;;;;;;;;;;20.83;45.69;96555.03;10479528;28;2382;-47
2022/11/10 07:34:29;;;;;;;;;;;;;;;20.84;45.59;96561.88;10478571;28;2299;-47
2022/11/10 07:39:29;;;;;;;;;;;;;;;20.88;46.63;96573.47;10478150;28;2303;-47
2022/11/10 07:44:30;;;;;;;;;;;;;;;20.90;46.11;96574.00;10478230;28;2355;-50
2022/11/10 07:49:35;;;;;;;;;;;;;;;20.90;46.13;96566.09;10483145;28;2266;-50
2022/11/10 07:54:37;;;;;;;;;;;;;;;20.91;46.42;96580.88;10482345;28;2369;-49
2022/11/10 07:59:37;;;;;;;;;;;;;;;20.93;46.88;96583.25;10481761;28;2290;-49
2022/11/10 08:04:37;;;;;;;;;;;;;;;20.95;46.32;96574.06;10486036;28;2367;-51
2022/11/10 08:09:38;;;;;;;;;;;;;;;20.99;46.74;96585.66;10503575;28;2303;-46
2022/11/10 08:14:44;;;;;;;;;;;;;;;21.02;46.96;96589.66;10492302;28;2429;-49
2022/11/10 08:19:45;;;;;;;;;;;;;;;21.06;46.99;96602.06;10490768;28;2260;-49
2022/11/10 08:24:45;;;;;;;;;;;;;;;21.13;47.03;96599.22;10492847;28;2365;-49
2022/11/10 08:29:45;;;;;;;;;;;;;;;21.08;47.12;96606.31;10499823;28;2449;-48
2022/11/10 08:34:45;;;;;;;;;;;;;;;21.08;46.92;96610.50;10516810;28;2312;-50
2022/11/10 08:39:46;;;;;;;;;;;;;;;21.10;47.16;96609.47;10494729;28;2269;-49
2022/11/10 08:44:46;;;;;;;;;;;;;;;21.10;47.40;96615.56;10507473;28;2356;-48
2022/11/10 08:49:46;;;;;;;;;;;;;;;21.06;47.21;96623.16;10518105;28;2296;-49
2022/11/10 08:54:47;;;;;;;;;;;;;;;21.05;47.18;96642.66;10513506;28;2273;-51
2022/11/10 08:59:48;;;;;;;;;;;;;;;21.05;47.30;96649.78;10515610;28;2321;-49
2022/11/10 09:04:48;;;;;;;;;;;;;;;21.01;47.38;96657.38;10484248;28;2304;-47
2022/11/10 09:09:48;;;;;;;;;;;;;;;20.96;47.57;96665.25;10485574;28;2331;-50
2022/11/10 09:14:49;;;;;;;;;;;;;;;20.92;47.61;96676.53;10489286;28;2295;-52
2022/11/10 09:19:49;;;;;;;;;;;;;;;20.89;47.63;96677.84;10491583;28;2230;-50
2022/11/10 09:24:49;;;;;;;;;;;;;;;20.85;47.91;96697.84;10484579;28;2248;-51
2022/11/10 09:29:50;;;;;;;;;;;;;;;20.87;47.62;96701.03;10486151;28;2288;-50
2022/11/10 09:34:50;;;;;;;;;;;;;;;20.85;47.62;96703.13;10482779;28;2380;-50
2022/11/10 09:39:50;;;;;;;;;;;;;;;20.84;47.65;96704.16;10482473;28;2279;-48
2022/11/10 09:44:51;;;;;;;;;;;;;;;20.86;47.87;96711.81;10488666;28;2319;-50
2022/11/10 09:49:56;;;;;;;;;;;;;;;20.80;48.00;96718.88;10488891;28;2203;-49
2022/11/10 09:54:58;;;;;;;;;;;;;;;20.75;47.96;96716.19;10490948;28;2300;-51
2022/11/10 09:59:58;;;;;;;;;;;;;;;20.74;47.86;96713.81;10483138;28;2263;-51
2022/11/10 10:05:17;;;;;;;;;;;;;;;20.77;47.77;96726.50;10482150;28;2378;-49
2022/11/10 10:10:21;;;;;;;;;;;;;;;20.76;47.98;96733.63;10483390;28;2250;-50
2022/11/10 10:15:27;;;;;;;;;;;;;;;20.74;48.11;96735.72;10482619;28;2236;-49
2022/11/10 10:20:46;;;;;;;;;;;;;;;20.76;47.86;96740.72;10482811;28;2310;-47
2022/11/10 10:25:47;;;;;;;;;;;;;;;20.76;47.83;96754.69;10482151;28;2390;-48
2022/11/10 10:30:47;;;;;;;;;;;;;;;20.66;48.18;96754.59;10479891;28;2263;-48
2022/11/10 10:35:48;;;;;;;;;;;;;;;20.71;48.03;96743.31;10482273;28;2216;-48
2022/11/10 10:40:49;;;;;;;;;;;;;;;20.69;48.13;96733.00;10478622;28;2376;-49
2022/11/10 10:46:05;;;;;;;;;;;;;;;20.72;48.54;96743.06;10480182;28;2325;-47
2022/11/10 10:51:07;;;;;;;;;;;;;;;20.74;48.49;96751.50;10479973;28;2341;-48
2022/11/10 10:56:18;;;;;;;;;;;;;;;20.73;49.04;96752.53;10479313;28;2450;-55
2022/11/10 11:01:20;;;;;;;;;;;;;;;20.78;49.48;96746.53;10482352;28;2401;-52
2022/11/10 11:06:25;;;;;;;;;;;;;;;20.76;49.10;96752.06;10479944;28;2325;-54
2022/11/10 11:11:27;;;;;;;;;;;;;;;20.71;48.84;96767.03;10486356;28;2238;-52
2022/11/10 11:16:28;;;;;;;;;;;;;;;20.72;48.76;96756.25;10477954;28;2331;-51
2022/11/10 11:21:36;;;;;;;;;;;;;;;20.70;48.99;96776.78;10487033;28;2336;-51
2022/11/10 11:26:36;;;;;;;;;;;;;;;20.64;49.01;96779.59;10477698;28;2264;-52
2022/11/10 11:31:39;;;;;;;;;;;;;;;20.64;48.85;96769.88;10479992;28;2260;-53
2022/11/10 11:36:55;;;;;;;;;;;;;;;20.68;48.56;96764.88;10480496;28;2240;-54
2022/11/10 11:42:03;;;;;;;;;;;;;;;20.68;48.83;96773.59;10479983;28;2200;-53
2022/11/10 11:47:25;;;;;;;;;;;;;;;20.72;49.02;96768.63;10480121;28;2255;-54
2022/11/10 11:52:33;;;;;;;;;;;;;;;20.65;48.86;96762.75;10489549;28;2388;-52
2022/11/10 11:57:51;;;;;;;;;;;;;;;20.65;49.22;96760.91;10495556;28;2299;-52
2022/11/10 12:03:12;;;;;;;;;;;;;;;20.62;49.34;96764.06;10488209;28;2199;-52
2022/11/10 12:08:16;;;;;;;;;;;;;;;20.63;49.50;96751.69;10482731;28;2371;-54
2022/11/10 12:13:35;;;;;;;;;;;;;;;20.62;49.27;96757.97;10489397;28;2326;-53
2022/11/10 12:18:36;;;;;;;;;;;;;;;20.70;49.10;96747.78;10486416;28;2263;-51
2022/11/10 12:23:47;;;;;;;;;;;;;;;20.70;48.91;96750.44;10483814;28;2294;-52
2022/11/10 12:29:02;;;;;;;;;;;;;;;20.70;49.07;96750.44;10488386;28;2326;-52
2022/11/10 12:34:11;;;;;;;;;;;;;;;20.67;49.06;96753.53;10485624;28;2333;-51
2022/11/10 12:39:11;;;;;;;;;;;;;;;20.72;48.84;96745.69;10489693;28;2180;-54
2022/11/10 12:44:15;;;;;;;;;;;;;;;20.80;48.64;96744.44;10486469;28;2243;-50
2022/11/10 12:49:19;;;;;;;;;;;;;;;20.82;48.83;96743.16;10488085;28;2312;-52
2022/11/10 12:54:20;;;;;;;;;;;;;;;21.00;48.54;96744.59;10492319;28;2295;-52
2022/11/10 12:59:20;;;;;;;;;;;;;;;21.53;47.44;96757.69;10486422;28;2257;-50
2022/11/10 13:04:20;;;;;;;;;;;;;;;21.99;46.65;96742.84;10483602;28;2464;-52
2022/11/10 13:09:21;;;;;;;;;;;;;;;22.20;46.15;96749.81;10483252;28;2311;-52
2022/11/10 13:14:26;;;;;;;;;;;;;;;21.92;46.23;96744.16;10484853;28;2358;-51
2022/11/10 13:19:28;;;;;;;;;;;;;;;21.65;47.41;96752.19;10488163;28;2339;-50
2022/11/10 13:24:38;;;;;;;;;;;;;;;21.53;47.37;96764.78;10485672;28;2307;-51
2022/11/10 13:29:42;;;;;;;;;;;;;;;21.42;47.68;96769.19;10485359;28;2523;-49
2022/11/10 13:34:43;;;;;;;;;;;;;;;21.35;48.09;96763.34;10486390;28;2327;-50
2022/11/10 13:39:44;;;;;;;;;;;;;;;21.34;48.05;96759.13;10485620;28;2262;-50
2022/11/10 13:44:46;;;;;;;;;;;;;;;21.61;47.75;96759.81;10484051;28;2287;-52
2022/11/10 13:49:52;;;;;;;;;;;;;;;22.02;46.54;96758.19;10484649;28;2358;-50
2022/11/10 13:55:06;;;;;;;;;;;;;;;22.13;46.29;96745.81;10493359;28;2221;-49
2022/11/10 14:00:26;;;;;;;;;;;;;;;21.70;46.98;96747.72;10485519;28;2236;-51
2022/11/10 14:05:27;;;;;;;;;;;;;;;21.47;47.91;96755.25;10482797;28;2328;-50
2022/11/10 14:10:33;;;;;;;;;;;;;;;21.24;48.25;96750.34;10481659;28;2291;-49
2022/11/10 14:15:38;;;;;;;;;;;;;;;21.10;48.76;96770.28;10484626;28;2361;-51
2022/11/10 14:20:40;;;;;;;;;;;;;;;20.99;49.20;96772.81;10489465;28;2275;-53
2022/11/10 14:25:41;;;;;;;;;;;;;;;20.92;49.49;96769.59;10484417;28;2233;-52
2022/11/10 14:30:41;;;;;;;;;;;;;;;20.87;49.54;96780.09;10483547;28;2304;-50
2022/11/10 14:35:51;;;;;;;;;;;;;;;20.82;49.46;96785.31;10482621;28;2307;-52
2022/11/10 14:40:56;;;;;;;;;;;;;;;20.79;49.67;96788.44;10485693;28;2542;-52
2022/11/10 14:45:56;;;;;;;;;;;;;;;20.76;49.82;96801.31;10482441;28;2275;-49
2022/11/10 14:51:02;;;;;;;;;;;;;;;20.77;49.59;96795.78;10480929;28;2376;-51
2022/11/10 14:56:03;;;;;;;;;;;;;;;20.82;49.35;96790.59;10482919;28;2117;-50
2022/11/10 15:01:05;;;;;;;;;;;;;;;20.71;49.54;96788.88;10489010;28;2329;-52
2022/11/10 15:06:09;;;;;;;;;;;;;;;20.67;49.77;96803.59;10482931;28;2255;-49
2022/11/10 15:11:28;;;;;;;;;;;;;;;20.64;50.00;96803.31;10481843;28;2428;-50
2022/11/10 15:16:29;;;;;;;;;;;;;;;20.63;49.98;96801.75;10481186;28;2458;-51
2022/11/10 15:21:33;;;;;;;;;;;;;;;20.62;49.75;96798.31;10477304;28;2331;-49
2022/11/10 15:26:37;;;;;;;;;;;;;;;20.61;49.87;96795.91;10491281;28;2333;-50
2022/11/10 15:31:37;;;;;;;;;;;;;;;20.57;49.86;96794.78;10494331;28;2296;-47
2022/11/10 15:36:41;;;;;;;;;;;;;;;20.58;49.30;96799.84;10476118;28;2274;-50
2022/11/10 15:41:42;;;;;;;;;;;;;;;20.52;49.48;96806.09;10489748;28;2326;-52
2022/11/10 15:46:42;;;;;;;;;;;;;;;20.50;49.43;96816.09;10489586;28;2218;-50
2022/11/10 15:51:42;;;;;;;;;;;;;;;20.50;49.43;96817.91;10487751;28;2189;-48
2022/11/10 15:56:42;;;;;;;;;;;;;;;20.51;49.41;96825.56;10487864;28;2192;-50
2022/11/10 16:01:43;;;;;;;;;;;;;;;20.48;49.28;96826.06;10492817;28;2463;-50
2022/11/10 16:06:43;;;;;;;;;;;;;;;20.44;49.39;96830.25;10488334;28;2315;-52
2022/11/10 16:11:44;;;;;;;;;;;;;;;20.45;49.18;96844.19;10485259;28;2253;-48
2022/11/10 16:16:44;;;;;;;;;;;;;;;20.40;49.24;96852.84;10486683;28;2293;-50
2022/11/10 16:21:44;;;;;;;;;;;;;;;20.39;49.33;96868.88;10486884;28;2295;-49
2022/11/10 16:26:44;;;;;;;;;;;;;;;20.37;49.33;96882.28;10487944;28;2165;-50
2022/11/10 16:31:45;;;;;;;;;;;;;;;20.37;49.48;96886.75;10487835;28;2237;-50
2022/11/10 16:36:45;;;;;;;;;;;;;;;20.40;48.98;96889.72;10487442;28;2410;-51
2022/11/10 16:41:46;;;;;;;;;;;;;;;20.36;49.23;96901.75;10483579;28;2304;-46
2022/11/10 16:46:48;;;;;;;;;;;;;;;20.32;49.24;96913.03;10488595;28;2361;-51
2022/11/10 16:51:49;;;;;;;;;;;;;;;20.30;49.01;96923.78;10496722;28;2182;-52
2022/11/10 16:56:49;;;;;;;;;;;;;;;20.29;49.09;96930.13;10487890;28;2353;-50
2022/11/10 17:01:49;;;;;;;;;;;;;;;20.27;49.40;96940.09;10487651;28;2445;-45
2022/11/10 17:06:50;;;;;;;;;;;;;;;20.27;49.02;96956.69;10487322;28;2202;-48
2022/11/10 17:11:50;;;;;;;;;;;;;;;20.27;49.22;96961.16;10492046;28;2272;-49
2022/11/10 17:16:51;;;;;;;;;;;;;;;20.25;49.30;96965.88;10489015;28;2348;-48
2022/11/10 17:21:52;;;;;;;;;;;;;;;20.23;49.44;96974.03;10492518;28;2374;-47
2022/11/10 17:26:53;;;;;;;;;;;;;;;20.24;49.30;96980.88;10493436;28;2190;-49
2022/11/10 17:31:54;;;;;;;;;;;;;;;20.19;49.33;96972.06;10490010;28;2322;-48
2022/11/10 17:36:54;;;;;;;;;;;;;;;20.24;49.38;96972.16;10491554;28;2261;-46
2022/11/10 17:41:55;;;;;;;;;;;;;;;20.19;49.23;96979.97;10486852;28;2314;-52
2022/11/10 17:46:55;;;;;;;;;;;;;;;20.17;49.35;96971.53;10490140;28;2281;-49
2022/11/10 17:51:56;;;;;;;;;;;;;;;20.15;49.51;96981.50;10490146;28;2247;-46
2022/11/10 17:56:56;;;;;;;;;;;;;;;20.17;49.19;96987.31;10497039;28;2355;-50
2022/11/10 18:01:57;;;;;;;;;;;;;;;20.21;49.18;96989.25;10490060;28;2328;-48
2022/11/10 18:06:58;;;;;;;;;;;;;;;20.22;49.31;97000.56;10490414;28;2276;-46
2022/11/10 18:11:58;;;;;;;;;;;;;;;20.21;49.42;96999.78;10490341;28;2322;-49
2022/11/10 18:16:59;;;;;;;;;;;;;;;20.26;49.67;97010.38;10490888;28;2438;-49
2022/11/10 18:21:59;;;;;;;;;;;;;;;20.19;49.32;97024.72;10490762;28;2352;-49
2022/11/10 18:27:05;;;;;;;;;;;;;;;20.15;49.44;97031.50;10490753;28;2383;-49
2022/11/10 18:32:05;;;;;;;;;;;;;;;20.10;49.50;97036.69;10488663;28;2329;-51
2022/11/10 18:37:06;;;;;;;;;;;;;;;20.14;49.32;97035.97;10488990;28;2317;-46
2022/11/10 18:42:06;;;;;;;;;;;;;;;20.12;49.18;97032.78;10490549;28;2276;-47
2022/11/10 18:47:06;;;;;;;;;;;;;;;20.10;49.34;97023.53;10488262;28;2314;-47
2022/11/10 18:52:07;;;;;;;;;;;;;;;20.08;49.18;97010.63;10491608;28;2348;-49
2022/11/10 18:57:10;;;;;;;;;;;;;;;20.09;49.35;96990.34;10490124;28;2312;-49
2022/11/10 19:02:11;;;;;;;;;;;;;;;20.08;49.20;96994.00;10489214;28;2330;-47
2022/11/10 19:07:11;;;;;;;;;;;;;;;20.06;48.77;96994.25;10489251;28;2347;-45
2022/11/10 19:12:11;;;;;;;;;;;;;;;20.06;49.28;97001.34;10487791;28;2283;-45
2022/11/10 19:17:12;;;;;;;;;;;;;;;20.07;49.13;97008.22;10487635;28;2209;-46
2022/11/10 19:22:12;;;;;;;;;;;;;;;20.02;49.09;97011.56;10489846;28;2316;-51
2022/11/10 19:27:13;;;;;;;;;;;;;;;20.05;49.07;97020.84;10488417;28;2320;-48
2022/11/10 19:32:13;;;;;;;;;;;;;;;20.03;48.98;97021.03;10488296;28;2319;-46
2022/11/10 19:37:13;;;;;;;;;;;;;;;20.02;48.77;97016.84;10488860;28;2257;-49
2022/11/10 19:42:14;;;;;;;;;;;;;;;20.03;48.93;97022.91;10487660;28;2301;-47
2022/11/10 19:47:14;;;;;;;;;;;;;;;19.99;49.00;97012.03;10488757;28;2315;-46
2022/11/10 19:52:15;;;;;;;;;;;;;;;19.97;48.66;97015.97;10488781;28;2293;-47
2022/11/10 19:57:15;;;;;;;;;;;;;;;20.00;48.74;97010.22;10491503;28;2263;-46
2022/11/10 20:02:16;;;;;;;;;;;;;;;19.97;48.62;97019.38;10488616;28;2295;-49
2022/11/10 20:12:35;;;;;;;;;;;;;;;19.97;48.60;97039.66;10495098;28;2368;-51
2022/11/10 20:17:35;;;;;;;;;;;;;;;19.95;48.76;97041.69;10494043;28;2296;-49
2022/11/10 20:22:36;;;;;;;;;;;;;;;19.94;48.65;97058.53;10501313;28;2412;-48
2022/11/10 20:27:40;;;;;;;;;;;;;;;19.94;48.62;97050.63;10493563;28;2324;-45
2022/11/10 20:32:41;;;;;;;;;;;;;;;19.93;48.68;97038.50;10494218;28;2342;-50
2022/11/10 20:37:41;;;;;;;;;;;;;;;19.90;48.45;97033.72;10494684;28;2277;-48
2022/11/10 20:42:41;;;;;;;;;;;;;;;19.93;48.41;97038.50;10493586;28;2259;-49
2022/11/10 20:47:42;;;;;;;;;;;;;;;19.90;48.46;97046.91;10494069;28;2342;-48
2022/11/10 20:52:42;;;;;;;;;;;;;;;19.91;48.44;97045.84;10497559;28;2338;-49
2022/11/10 20:57:42;;;;;;;;;;;;;;;19.88;48.36;97051.59;10493528;28;2299;-50
2022/11/10 21:02:42;;;;;;;;;;;;;;;19.87;48.22;97066.56;10492710;28;2265;-49
2022/11/10 21:07:43;;;;;;;;;;;;;;;19.85;48.32;97068.66;10492102;28;2317;-50
2022/11/10 21:12:49;;;;;;;;;;;;;;;19.85;48.50;97062.56;10492848;28;2267;-51
2022/11/10 21:17:49;;;;;;;;;;;;;;;19.84;48.31;97068.91;10493798;28;2252;-50
2022/11/10 21:22:50;;;;;;;;;;;;;;;19.87;48.18;97076.28;10498215;28;2260;-48
2022/11/10 21:27:50;;;;;;;;;;;;;;;19.83;48.25;97064.66;10491606;28;2269;-48
2022/11/10 21:32:50;;;;;;;;;;;;;;;19.83;48.25;97056.75;10493817;28;2377;-50
2022/11/10 21:37:51;;;;;;;;;;;;;;;19.83;48.17;97054.13;10492159;28;2258;-47
2022/11/10 21:42:55;;;;;;;;;;;;;;;19.83;48.23;97057.56;10488731;28;2312;-48
2022/11/10 21:48:01;;;;;;;;;;;;;;;19.83;48.01;97064.66;10493747;28;2296;-50
2022/11/10 21:53:04;;;;;;;;;;;;;;;19.81;48.18;97056.19;10493101;28;2347;-49
2022/11/10 21:58:05;;;;;;;;;;;;;;;19.80;47.96;97065.94;10490259;28;2260;-50
2022/11/10 22:03:05;;;;;;;;;;;;;;;19.78;48.07;97048.78;10490305;28;2338;-49
2022/11/10 22:08:05;;;;;;;;;;;;;;;19.79;47.92;97055.63;10490051;28;2476;-48
2022/11/10 22:18:38;;;;;;;;;;;;;;;19.75;48.14;97057.94;10490791;28;2314;-48
2022/11/10 22:28:57;;;;;;;;;;;;;;;19.74;48.00;97066.88;10492053;28;2316;-47
2022/11/10 22:33:58;;;;;;;;;;;;;;;19.73;48.11;97065.28;10491081;28;2294;-50
2022/11/10 22:38:59;;;;;;;;;;;;;;;19.72;47.89;97073.41;10489326;28;2277;-47
2022/11/10 22:44:02;;;;;;;;;;;;;;;19.69;47.74;97073.88;10489882;28;2318;-47
2022/11/10 22:49:04;;;;;;;;;;;;;;;19.70;48.06;97073.63;10494295;28;2261;-50
2022/11/10 22:54:04;;;;;;;;;;;;;;;19.70;47.97;97080.75;10490824;28;2344;-54
2022/11/10 22:59:05;;;;;;;;;;;;;;;19.71;47.74;97074.44;10489432;28;2209;-46
2022/11/10 23:04:05;;;;;;;;;;;;;;;19.66;47.67;97069.88;10486546;28;2398;-49
2022/11/10 23:09:05;;;;;;;;;;;;;;;19.67;47.80;97060.16;10489596;28;2352;-48
2022/11/10 23:14:06;;;;;;;;;;;;;;;19.67;47.69;97062.78;10488202;28;2524;-48
2022/11/10 23:19:08;;;;;;;;;;;;;;;19.66;47.82;97056.72;10490502;28;2317;-45
2022/11/10 23:24:21;;;;;;;;;;;;;;;19.67;47.82;97060.16;10490627;28;2255;-45
2022/11/10 23:29:24;;;;;;;;;;;;;;;19.65;47.76;97072.75;10490215;28;2393;-49
2022/11/10 23:34:24;;;;;;;;;;;;;;;19.68;47.54;97062.53;10491762;28;2301;-45
2022/11/10 23:39:25;;;;;;;;;;;;;;;19.62;47.86;97057.47;10489507;28;2320;-50
2022/11/10 23:44:26;;;;;;;;;;;;;;;19.61;47.79;97048.75;10493251;28;2307;-46
2022/11/10 23:49:26;;;;;;;;;;;;;;;19.64;47.67;97050.13;10495520;28;2284;-46
2022/11/10 23:54:26;;;;;;;;;;;;;;;19.62;47.49;97052.19;10500484;28;2327;-45
2022/11/10 23:59:26;;;;;;;;;;;;;;;19.60;47.68;97055.03;10496175;28;2311;-49
